• Join FlightAware (Why Join?)
  • Login
  • US Flag 
08:38PM EDT


 

Airport Tracker/Info


-or-


 

Live Flight TrackerFlight Track Log ✈ SWA218 ✈ 17-May-2013 ✈ KDEN - KBWI

Flight Track Log - Related Links

Times and Time Zones

All times are in EDT time to prevent confusion due to time zone crossing. See the SWA218 flight status page for this flight to view local times or setup timezone preferences in your user account.

Time Position Orientation Groundspeed Altitude Reporting Facility
EDT Latitude Longitude Course Direction KTS MPH feet Rate Location/Type
11:59AM 39.8000 -104.6500 90° East 190 219 7,000  Level Denver TRACON
12:00PM 39.8000 -104.5833 90° East 234 269 8,100 1,320 Climbing Denver TRACON
12:01PM 39.8061 -104.4842 85° East 281 323 9,500 1,380 Climbing Denver Center
12:02PM 39.8167 -104.3619 84° East 321 369 10,900 1,980 Climbing Denver Center
12:03PM 39.8308 -104.2336 82° East 355 409 13,700 2,700 Climbing Denver Center
12:04PM 39.8442 -104.0983 83° East 377 434 16,500 2,520 Climbing Denver Center
12:05PM 39.8608 -103.9450 82° East 402 463 19,000 2,280 Climbing Denver Center
12:06PM 39.8772 -103.7942 82° East 422 486 21,300 1,920 Climbing Denver Center
12:07PM 39.8953 -103.6222 82° East 431 496 23,000 1,680 Climbing Denver Center
12:08PM 39.9128 -103.4722 81° East 463 533 24,800 1,740 Climbing Denver Center
12:09PM 39.9347 -103.2836 81° East 473 544 26,700 1,680 Climbing Denver Center
12:10PM 39.9525 -103.1172 82° East 482 555 28,300 1,740 Climbing Denver Center
12:11PM 39.9739 -102.9236 82° East 485 558 30,300 1,740 Climbing Denver Center
12:12PM 39.9925 -102.7581 82° East 482 555 31,900 1,620 Climbing Denver Center
12:13PM 40.0119 -102.5650 82° East 482 555 33,700 1,680 Climbing Denver Center
12:14PM 40.0289 -102.4042 82° East 474 545 35,400 1,440 Climbing Denver Center
12:15PM 40.0492 -102.2206 82° East 462 532 36,700 720 Climbing Denver Center
12:16PM 40.0639 -102.0603 83° East 463 533 37,000 120 Climbing Denver Center
12:17PM 40.0839 -101.8725 82° East 469 540 37,000  Level Denver Center
12:18PM 40.0992 -101.7092 83° East 472 543 37,000  Level Denver Center
12:20PM 40.1181 -101.5192 83° East 475 547 37,000  Level Denver Center
12:21PM 40.1339 -101.3569 83° East 471 542 37,000  Level Denver Center
12:22PM 40.1511 -101.1683 83° East 470 541 37,000  Level Denver Center
12:23PM 40.1656 -101.0069 83° East 469 540 37,000  Level Denver Center
12:24PM 40.1833 -100.8206 83° East 465 535 37,000  Level Denver Center
12:25PM 40.1972 -100.6597 83° East 466 536 37,000  Level Denver Center
12:26PM 40.2053 -100.4731 87° East 463 533 37,000  Level Denver Center
12:27PM 40.2078 -100.3125 89° East 463 533 37,000  Level Denver Center
12:28PM 40.2114 -100.1258 88° East 463 533 37,000  Level Denver Center
12:29PM 40.2128 -99.9672 89° East 458 527 37,000  Level Denver Center
12:30PM 40.2150 -99.8133 89° East 455 524 37,000  Level Denver Center
12:31PM 40.2178 -99.6156 89° East 456 525 37,000  Level Denver Center
12:32PM 40.2178 -99.4508 90° East 455 524 37,000  Level Denver Center
12:33PM 40.2200 -99.2867 89° East 453 521 37,000  Level Denver Center
12:34PM 40.2206 -99.1194 90° East 460 529 37,000  Level Denver Center
12:35PM 40.2217 -98.9519 89° East 461 531 37,000  Level Denver Center
12:36PM 40.2219 -98.7514 90° East 461 531 37,000  Level Denver Center
12:36PM 40.2214 -98.7181 91° East 462 532 37,000  Level Minneapolis Center
12:37PM 40.2219 -98.5506 90° East 463 533 37,000  Level Minneapolis Center
12:38PM 40.2228 -98.3836 90° East 462 532 37,000  Level Minneapolis Center
12:39PM 40.2219 -98.2156 90° East 463 533 37,000  Level Minneapolis Center
12:40PM 40.2219 -98.0481 90° East 463 533 37,000  Level Minneapolis Center
12:41PM 40.2208 -97.8456 90° East 464 534 37,000  Level Minneapolis Center
12:42PM 40.2183 -97.6769 91° East 465 535 37,000  Level Minneapolis Center
12:44PM 40.2178 -97.5061 90° East 467 537 37,000  Level Minneapolis Center
12:45PM 40.2175 -97.3342 90° East 470 541 37,000  Level Minneapolis Center
12:46PM 40.2147 -97.1642 91° East 469 540 37,000  Level Minneapolis Center
12:47PM 40.2125 -96.9956 91° East 468 539 37,000  Level Minneapolis Center
12:48PM 40.2094 -96.7906 91° East 469 540 37,000  Level Minneapolis Center
12:49PM 40.2064 -96.6208 91° East 469 540 37,000  Level Minneapolis Center
12:50PM 40.2047 -96.4508 91° East 469 540 37,000  Level Minneapolis Center
12:51PM 40.2022 -96.3142 91° East 470 541 37,000  Level Minneapolis Center
12:52PM 40.1992 -96.1097 91° East 471 542 37,000  Level Minneapolis Center
12:53PM 40.1989 -95.9397 90° East 470 541 37,000  Level Minneapolis Center
12:54PM 40.1981 -95.7642 90° East 478 550 37,000  Level Minneapolis Center
12:55PM 40.1967 -95.5586 90° East 475 547 37,000  Level Minneapolis Center
12:56PM 40.1953 -95.3864 91° East 475 547 37,000  Level Minneapolis Center
12:57PM 40.1942 -95.2136 90° East 476 548 37,000  Level Minneapolis Center
12:58PM 40.1911 -95.0061 91° East 476 548 37,000 480 Level Minneapolis Center
12:59PM 40.1897 -94.7994 90° East 476 548 38,200 960 Climbing Minneapolis Center
01:00PM 40.1856 -94.6289 92° East 472 543 39,000 360 Climbing Minneapolis Center
01:01PM 40.1833 -94.4539 91° East 476 548 39,000  Level Minneapolis Center
01:02PM 40.1772 -94.2797 93° East 480 552 39,000  Level Minneapolis Center
01:03PM 40.1750 -94.1847 92° East 480 552 39,000  Level Kansas City Center
01:04PM 40.1731 -94.0375 91° East 478 550 39,000  Level Kansas City Center
01:05PM 40.1672 -93.8306 92° East 478 550 39,000  Level Kansas City Center
01:06PM 40.1644 -93.6581 91° East 479 551 39,000  Level Kansas City Center
01:07PM 40.1594 -93.4864 92° East 479 551 39,000  Level Kansas City Center
01:08PM 40.1542 -93.3136 92° East 480 552 39,000  Level Kansas City Center
01:09PM 40.1497 -93.1411 92° East 479 551 39,000  Level Kansas City Center
01:10PM 40.1453 -92.9367 92° East 478 550 39,000  Level Kansas City Center
01:11PM 40.1397 -92.7700 92° East 478 550 39,000  Level Kansas City Center
01:12PM 40.1308 -92.5744 93° East 481 554 39,000  Level Kansas City Center
01:13PM 40.1186 -92.4092 95° East 478 550 39,000  Level Kansas City Center
01:14PM 40.1017 -92.2244 97° East 478 550 39,000  Level Kansas City Center
01:15PM 40.0933 -92.0553 94° East 478 550 39,000  Level Kansas City Center
01:16PM 40.1019 -91.8872 86° East 471 542 39,000  Level Kansas City Center
01:17PM 40.1092 -91.6853 87° East 469 540 39,000  Level Kansas City Center
01:18PM 40.1158 -91.5186 87° East 466 536 39,000  Level Kansas City Center
01:19PM 40.1217 -91.3528 87° East 463 533 39,000  Level Kansas City Center
01:20PM 40.1275 -91.1878 87° East 460 529 39,000  Level Kansas City Center
01:21PM 40.1322 -91.0214 88° East 461 531 39,000  Level Kansas City Center
01:23PM 40.1403 -90.8225 87° East 462 532 39,000  Level Chicago Center
01:24PM 40.1447 -90.6567 88° East 461 531 39,000  Level Chicago Center
01:25PM 40.1497 -90.4611 88° East 463 533 39,000  Level Chicago Center
01:26PM 40.1544 -90.2939 88° East 464 534 39,000  Level Chicago Center
01:27PM 40.1578 -90.1250 88° East 467 537 39,000  Level Chicago Center
01:28PM 40.1625 -89.9578 88° East 466 536 39,000  Level Chicago Center
01:29PM 40.1667 -89.7897 88° East 466 536 39,000  Level Chicago Center
01:30PM 40.1697 -89.5856 89° East 471 542 39,000  Level Chicago Center
01:31PM 40.1736 -89.4167 88° East 469 540 39,000  Level Chicago Center
01:32PM 40.1761 -89.2467 89° East 471 542 39,000  Level Chicago Center
01:33PM 40.1794 -89.0792 88° East 467 537 39,000  Level Chicago Center
01:34PM 40.1828 -88.9092 88° East 468 539 39,000  Level Chicago Center
01:35PM 40.1853 -88.7067 89° East 466 536 39,000  Level Chicago Center
01:36PM 40.1872 -88.5381 89° East 465 535 39,000  Level Chicago Center
01:37PM 40.1892 -88.3722 89° East 459 528 39,000  Level Chicago Center
01:38PM 40.1911 -88.2036 89° East 461 531 39,000  Level Chicago Center
01:39PM 40.1925 -88.0128 89° East 461 531 39,000  Level Chicago Center
01:40PM 40.1942 -87.8464 89° East 462 532 39,000  Level Chicago Center
01:41PM 40.1933 -87.7822 91° East 463 533 39,000  Level Indianapolis Center
01:42PM 40.1956 -87.6131 89° East 465 535 39,000  Level Indianapolis Center
01:42PM 40.1964 -87.5092 89° East 467 537 39,000  Level Chicago Center
01:43PM 40.1953 -87.3425 90° East 463 533 39,000  Level Chicago Center
01:44PM 40.1958 -87.1739 90° East 465 535 39,000  Level Chicago Center
01:45PM 40.1953 -86.9706 90° East 466 536 39,000  Level Chicago Center
01:46PM 40.1950 -86.8006 90° East 468 539 39,000  Level Chicago Center
01:47PM 40.1950 -86.6303 90° East 467 537 39,000  Level Chicago Center
01:48PM 40.1942 -86.4606 90° East 466 536 39,000  Level Chicago Center
01:49PM 40.1928 -86.2908 91° East 464 534 39,000  Level Chicago Center
01:50PM 40.1919 -86.1200 90° East 466 536 39,000  Level Chicago Center
01:52PM 40.1892 -85.9514 91° East 464 534 39,000  Level Chicago Center
01:53PM 40.1867 -85.7461 91° East 468 539 39,000  Level Chicago Center
01:54PM 40.1822 -85.5764 92° East 471 542 39,000  Level Chicago Center
01:55PM 40.1831 -85.4081 90° East 468 539 39,000  Level Chicago Center
01:55PM 40.1789 -85.3397 95° East 464 534 39,000  Level Indianapolis Center
01:56PM 40.1764 -85.1700 91° East 467 537 39,000  Level Indianapolis Center
01:57PM 40.1722 -85.0011 92° East 466 536 39,000  Level Indianapolis Center
01:58PM 40.1678 -84.8050 92° East 468 539 39,000  Level Indianapolis Center
01:59PM 40.1653 -84.6333 91° East 467 537 39,000  Level Indianapolis Center
02:00PM 40.1619 -84.4631 91° East 465 535 39,000  Level Indianapolis Center
02:01PM 40.1581 -84.2925 92° East 467 537 39,000  Level Indianapolis Center
02:02PM 40.1522 -84.1217 93° East 467 537 39,000  Level Indianapolis Center
02:03PM 40.1481 -83.9494 92° East 468 539 39,000  Level Indianapolis Center
02:04PM 40.1433 -83.7775 92° East 468 539 39,000  Level Indianapolis Center
02:05PM 40.1378 -83.5756 92° East 469 540 39,000  Level Indianapolis Center
02:06PM 40.1314 -83.3992 93° East 475 547 39,000  Level Indianapolis Center
02:07PM 40.1250 -83.2231 93° East 477 549 39,000  Level Indianapolis Center
02:08PM 40.1189 -83.0475 93° East 478 550 39,000  Level Indianapolis Center
02:10PM 40.1125 -82.8722 93° East 477 549 39,000  Level Indianapolis Center
02:11PM 40.1056 -82.6964 93° East 478 550 39,000  Level Indianapolis Center
02:12PM 40.0986 -82.5225 93° East 476 548 39,000  Level Indianapolis Center
02:13PM 40.0917 -82.3481 93° East 476 548 39,000  Level Indianapolis Center
02:15PM 40.0750 -81.9911 93° East 481 554 39,000  Level Cleveland Center
02:16PM 40.0667 -81.8200 94° East 481 554 39,000  Level Cleveland Center
02:17PM 40.0603 -81.6275 92° East 481 554 39,000  Level Cleveland Center
02:18PM 40.0492 -81.4753 95° East 481 554 39,000  Level Cleveland Center
02:19PM 40.0442 -81.2828 92° East 481 554 39,000  Level Cleveland Center
02:20PM 40.0347 -81.1092 94° East 481 554 39,000  Level Cleveland Center
02:21PM 40.0250 -80.9356 94° East 481 554 39,000  Level Cleveland Center
02:22PM 40.0086 -80.7592 97° East 481 554 39,000  Level Cleveland Center
02:23PM 39.9733 -80.5939 106° East 481 554 39,000  Level Cleveland Center
02:24PM 39.9400 -80.4261 104° East 476 548 39,000  Level Cleveland Center
02:25PM 39.9042 -80.2531 105° East 476 548 39,000  Level Cleveland Center
02:26PM 39.8722 -80.0881 104° East 476 548 39,000 -780 Level Cleveland Center
02:27PM 39.8358 -79.9181 106° East 476 548 37,500 -1,500 Descending Cleveland Center
02:28PM 39.8014 -79.7508 105° East 476 548 36,000 -1,920 Descending Cleveland Center
02:29PM 39.7647 -79.5811 106° East 476 548 33,700 -2,880 Descending Cleveland Center
02:30PM 39.7297 -79.4142 105° East 476 548 30,300 -3,240 Descending Cleveland Center
02:31PM 39.6967 -79.2450 104° East 476 548 27,300 -2,100 Descending Cleveland Center
02:32PM 39.6483 -79.0169 105° East 471 542 25,000 -960 Descending Washington Center
02:33PM 39.6056 -78.8292 106° East 488 562 25,000 -900 Level Washington Center
02:34PM 39.5683 -78.6658 106° East 480 552 23,200 -2,040 Descending Washington Center
02:35PM 39.5328 -78.5031 106° East 470 541 20,900 -2,340 Descending Washington Center
02:36PM 39.4986 -78.3536 106° East 470 541 18,600 -2,400 Descending Washington Center
02:37PM 39.4664 -78.2100 106° East 470 541 16,200 -1,800 Descending Washington Center
02:38PM 39.4361 -78.0692 106° East 404 465 15,000 -660 Descending Washington Center
02:39PM 39.4161 -77.9206 100° East 404 465 15,000 -180 Level Washington Center
02:40PM 39.4253 -77.7706 85° East 404 465 14,700 -660 Descending Washington Center
02:41PM 39.4319 -77.6228 87° East 409 471 13,700 -1,080 Descending Washington Center
02:42PM 39.4406 -77.4781 86° East 409 471 12,600 -1,380 Descending Washington Center
02:43PM 39.4489 -77.3383 86° East 398 458 11,100 -1,200 Descending Washington Center
02:44PM 39.4667 -77.2667 72° East 395 455 11,000 -120 Descending Potomac TRACON
02:45PM 39.4833 -77.1333 81° East 396 456 11,000 -300 Level Potomac TRACON
02:46PM 39.4833 -77.0000 90° East 373 429 10,500 -660 Descending Potomac TRACON
02:47PM 39.4833 -76.8833 90° East 322 371 9,700 -1,140 Descending Potomac TRACON
02:48PM 39.4833 -76.7667 90° East 307 353 8,200 -1,440 Descending Potomac TRACON
02:49PM 39.4833 -76.6667 90° East 301 346 6,800 -1,500 Descending Potomac TRACON
02:50PM 39.4167 -76.5833 136° Southeast 296 341 5,400 -900 Descending Potomac TRACON
02:51PM 39.3667 -76.5167 134° Southeast 281 323 5,000 -240 Descending Potomac TRACON
02:52PM 39.3000 -76.4500 142° Southeast 278 320 5,000 -300 Level Potomac TRACON
02:53PM 39.2500 -76.4000 142° Southeast 289 333 4,500 -960 Descending Potomac TRACON
02:54PM 39.1833 -76.4000 180° South 276 318 3,200 -900 Descending Potomac TRACON
02:55PM 39.1167 -76.4500 210° Southwest 233 268 2,800 -600 Descending Potomac TRACON
02:56PM 39.0833 -76.5167 237° Southwest 222 255 2,000 -420 Descending Potomac TRACON
02:57PM 39.0833 -76.5833 270° West 197 227 2,000 -420 Level Potomac TRACON
02:58PM 39.1167 -76.6167 322° Northwest 174 200 1,200 -840 Descending Potomac TRACON
02:59PM 39.1500 -76.6500 322° Northwest 147 169 400 -840 Descending Potomac TRACON